sensor_id;sensor_type;location;lat;lon;timestamp;P1;durP1;ratioP1;P2;durP2;ratioP2
13014;SDS011;6573;57.696;11.950;2023-04-01T00:01:09;2.13;;;1.40;;
13014;SDS011;6573;57.696;11.950;2023-04-01T00:03:40;1.60;;;1.37;;
13014;SDS011;6573;57.696;11.950;2023-04-01T00:06:09;2.33;;;1.20;;
13014;SDS011;6573;57.696;11.950;2023-04-01T00:08:41;1.87;;;1.30;;
13014;SDS011;6573;57.696;11.950;2023-04-01T00:11:10;1.50;;;1.40;;
13014;SDS011;6573;57.696;11.950;2023-04-01T00:13:41;1.73;;;1.33;;
13014;SDS011;6573;57.696;11.950;2023-04-01T00:16:10;1.97;;;1.47;;
13014;SDS011;6573;57.696;11.950;2023-04-01T00:18:48;2.00;;;1.40;;
13014;SDS011;6573;57.696;11.950;2023-04-01T00:21:17;1.60;;;1.50;;
13014;SDS011;6573;57.696;11.950;2023-04-01T00:23:47;2.10;;;1.57;;
13014;SDS011;6573;57.696;11.950;2023-04-01T00:26:15;1.60;;;1.50;;
13014;SDS011;6573;57.696;11.950;2023-04-01T00:28:47;2.60;;;1.40;;
13014;SDS011;6573;57.696;11.950;2023-04-01T00:31:15;2.23;;;1.50;;
13014;SDS011;6573;57.696;11.950;2023-04-01T00:33:44;2.23;;;1.50;;
13014;SDS011;6573;57.696;11.950;2023-04-01T00:36:13;2.30;;;1.40;;
13014;SDS011;6573;57.696;11.950;2023-04-01T00:38:43;1.30;;;1.20;;
13014;SDS011;6573;57.696;11.950;2023-04-01T00:41:13;2.27;;;1.53;;
13014;SDS011;6573;57.696;11.950;2023-04-01T00:43:44;3.53;;;1.57;;
13014;SDS011;6573;57.696;11.950;2023-04-01T00:46:15;3.13;;;1.50;;
13014;SDS011;6573;57.696;11.950;2023-04-01T00:48:45;2.83;;;1.70;;
13014;SDS011;6573;57.696;11.950;2023-04-01T00:51:17;4.30;;;2.00;;
13014;SDS011;6573;57.696;11.950;2023-04-01T00:53:49;3.47;;;1.90;;
13014;SDS011;6573;57.696;11.950;2023-04-01T00:56:21;2.33;;;1.60;;
13014;SDS011;6573;57.696;11.950;2023-04-01T00:58:54;2.20;;;1.57;;
13014;SDS011;6573;57.696;11.950;2023-04-01T01:01:29;3.17;;;1.60;;
13014;SDS011;6573;57.696;11.950;2023-04-01T01:03:58;3.87;;;1.70;;
13014;SDS011;6573;57.696;11.950;2023-04-01T01:06:32;3.77;;;1.50;;
13014;SDS011;6573;57.696;11.950;2023-04-01T01:09:14;2.57;;;1.70;;
13014;SDS011;6573;57.696;11.950;2023-04-01T01:11:54;2.17;;;1.70;;
13014;SDS011;6573;57.696;11.950;2023-04-01T01:14:34;3.90;;;1.60;;
13014;SDS011;6573;57.696;11.950;2023-04-01T01:17:16;1.67;;;1.47;;
13014;SDS011;6573;57.696;11.950;2023-04-01T01:20:06;2.27;;;1.77;;
13014;SDS011;6573;57.696;11.950;2023-04-01T01:29:12;3.73;;;1.67;;
13014;SDS011;6573;57.696;11.950;2023-04-01T01:31:58;5.40;;;1.70;;
13014;SDS011;6573;57.696;11.950;2023-04-01T01:34:35;1.70;;;1.60;;
13014;SDS011;6573;57.696;11.950;2023-04-01T01:37:10;1.33;;;1.23;;
13014;SDS011;6573;57.696;11.950;2023-04-01T01:39:41;1.77;;;1.60;;
13014;SDS011;6573;57.696;11.950;2023-04-01T01:42:12;1.77;;;1.60;;
13014;SDS011;6573;57.696;11.950;2023-04-01T01:44:44;4.67;;;1.70;;
13014;SDS011;6573;57.696;11.950;2023-04-01T01:47:15;1.83;;;1.60;;
13014;SDS011;6573;57.696;11.950;2023-04-01T01:49:44;1.63;;;1.50;;
13014;SDS011;6573;57.696;11.950;2023-04-01T01:52:14;2.13;;;1.40;;
13014;SDS011;6573;57.696;11.950;2023-04-01T01:54:48;1.73;;;1.40;;
13014;SDS011;6573;57.696;11.950;2023-04-01T01:57:17;3.73;;;1.37;;
13014;SDS011;6573;57.696;11.950;2023-04-01T01:59:51;1.43;;;1.33;;
13014;SDS011;6573;57.696;11.950;2023-04-01T02:02:22;2.27;;;1.50;;
13014;SDS011;6573;57.696;11.950;2023-04-01T02:04:52;3.23;;;1.50;;
13014;SDS011;6573;57.696;11.950;2023-04-01T02:07:27;1.87;;;1.50;;
13014;SDS011;6573;57.696;11.950;2023-04-01T02:09:58;2.13;;;1.77;;
13014;SDS011;6573;57.696;11.950;2023-04-01T02:12:27;2.33;;;1.43;;
13014;SDS011;6573;57.696;11.950;2023-04-01T02:14:57;2.27;;;1.50;;
13014;SDS011;6573;57.696;11.950;2023-04-01T02:17:32;1.73;;;1.50;;
13014;SDS011;6573;57.696;11.950;2023-04-01T02:20:04;1.40;;;1.30;;
13014;SDS011;6573;57.696;11.950;2023-04-01T02:22:38;2.53;;;1.60;;
13014;SDS011;6573;57.696;11.950;2023-04-01T02:25:10;2.83;;;1.60;;
13014;SDS011;6573;57.696;11.950;2023-04-01T02:27:40;1.60;;;1.30;;
13014;SDS011;6573;57.696;11.950;2023-04-01T02:30:12;2.13;;;1.40;;
13014;SDS011;6573;57.696;11.950;2023-04-01T02:32:41;2.47;;;1.70;;
13014;SDS011;6573;57.696;11.950;2023-04-01T02:35:11;2.43;;;1.70;;
13014;SDS011;6573;57.696;11.950;2023-04-01T02:37:44;1.80;;;1.50;;
13014;SDS011;6573;57.696;11.950;2023-04-01T02:40:15;1.80;;;1.30;;
13014;SDS011;6573;57.696;11.950;2023-04-01T02:42:44;3.60;;;1.60;;
13014;SDS011;6573;57.696;11.950;2023-04-01T02:45:12;2.57;;;1.40;;
13014;SDS011;6573;57.696;11.950;2023-04-01T02:47:42;2.60;;;1.30;;
13014;SDS011;6573;57.696;11.950;2023-04-01T02:50:10;1.90;;;1.27;;
13014;SDS011;6573;57.696;11.950;2023-04-01T02:52:38;1.70;;;1.20;;
13014;SDS011;6573;57.696;11.950;2023-04-01T02:55:08;1.87;;;1.40;;
13014;SDS011;6573;57.696;11.950;2023-04-01T02:57:37;1.50;;;1.33;;
13014;SDS011;6573;57.696;11.950;2023-04-01T03:00:05;2.87;;;1.50;;
13014;SDS011;6573;57.696;11.950;2023-04-01T03:02:37;1.40;;;1.30;;
13014;SDS011;6573;57.696;11.950;2023-04-01T03:05:06;2.77;;;1.60;;
13014;SDS011;6573;57.696;11.950;2023-04-01T03:07:35;2.77;;;1.40;;
13014;SDS011;6573;57.696;11.950;2023-04-01T03:10:03;3.57;;;1.20;;
13014;SDS011;6573;57.696;11.950;2023-04-01T03:12:34;1.30;;;1.20;;
13014;SDS011;6573;57.696;11.950;2023-04-01T03:15:02;2.23;;;1.03;;
13014;SDS011;6573;57.696;11.950;2023-04-01T03:17:36;1.97;;;1.20;;
13014;SDS011;6573;57.696;11.950;2023-04-01T03:20:05;2.23;;;1.40;;
13014;SDS011;6573;57.696;11.950;2023-04-01T03:22:37;2.17;;;1.30;;
13014;SDS011;6573;57.696;11.950;2023-04-01T03:25:08;3.13;;;1.23;;
13014;SDS011;6573;57.696;11.950;2023-04-01T03:27:39;1.30;;;1.20;;
13014;SDS011;6573;57.696;11.950;2023-04-01T03:30:07;1.50;;;1.10;;
13014;SDS011;6573;57.696;11.950;2023-04-01T03:32:37;1.77;;;1.20;;
13014;SDS011;6573;57.696;11.950;2023-04-01T03:35:05;2.27;;;1.20;;
13014;SDS011;6573;57.696;11.950;2023-04-01T03:37:36;1.37;;;1.07;;
13014;SDS011;6573;57.696;11.950;2023-04-01T03:40:05;1.53;;;1.20;;
13014;SDS011;6573;57.696;11.950;2023-04-01T03:42:34;2.60;;;1.00;;
13014;SDS011;6573;57.696;11.950;2023-04-01T03:45:04;1.87;;;1.20;;
13014;SDS011;6573;57.696;11.950;2023-04-01T03:47:33;1.13;;;1.00;;
13014;SDS011;6573;57.696;11.950;2023-04-01T03:50:02;2.63;;;1.50;;
13014;SDS011;6573;57.696;11.950;2023-04-01T03:52:30;2.23;;;1.50;;
13014;SDS011;6573;57.696;11.950;2023-04-01T03:54:59;4.50;;;1.40;;
13014;SDS011;6573;57.696;11.950;2023-04-01T03:57:28;2.00;;;1.50;;
13014;SDS011;6573;57.696;11.950;2023-04-01T03:59:58;1.60;;;1.30;;
13014;SDS011;6573;57.696;11.950;2023-04-01T04:02:28;2.40;;;1.50;;
13014;SDS011;6573;57.696;11.950;2023-04-01T04:04:56;2.03;;;1.40;;
13014;SDS011;6573;57.696;11.950;2023-04-01T04:07:24;1.77;;;1.27;;
13014;SDS011;6573;57.696;11.950;2023-04-01T04:09:53;1.73;;;1.03;;
13014;SDS011;6573;57.696;11.950;2023-04-01T04:12:23;1.30;;;1.20;;
13014;SDS011;6573;57.696;11.950;2023-04-01T04:14:51;1.23;;;1.13;;
13014;SDS011;6573;57.696;11.950;2023-04-01T04:17:19;2.43;;;1.20;;
13014;SDS011;6573;57.696;11.950;2023-04-01T04:19:49;1.80;;;1.30;;
13014;SDS011;6573;57.696;11.950;2023-04-01T04:22:17;2.53;;;1.30;;
13014;SDS011;6573;57.696;11.950;2023-04-01T04:24:46;1.03;;;0.93;;
13014;SDS011;6573;57.696;11.950;2023-04-01T04:27:14;1.10;;;1.00;;
13014;SDS011;6573;57.696;11.950;2023-04-01T04:29:43;1.40;;;1.23;;
13014;SDS011;6573;57.696;11.950;2023-04-01T04:32:11;2.10;;;1.20;;
13014;SDS011;6573;57.696;11.950;2023-04-01T04:34:39;2.77;;;1.17;;
13014;SDS011;6573;57.696;11.950;2023-04-01T04:37:09;2.17;;;1.20;;
13014;SDS011;6573;57.696;11.950;2023-04-01T04:39:38;2.00;;;1.40;;
13014;SDS011;6573;57.696;11.950;2023-04-01T04:42:06;3.00;;;1.30;;
13014;SDS011;6573;57.696;11.950;2023-04-01T04:44:34;1.50;;;1.30;;
13014;SDS011;6573;57.696;11.950;2023-04-01T04:47:03;1.73;;;1.00;;
13014;SDS011;6573;57.696;11.950;2023-04-01T04:49:31;1.80;;;1.20;;
13014;SDS011;6573;57.696;11.950;2023-04-01T04:51:59;3.23;;;1.53;;
13014;SDS011;6573;57.696;11.950;2023-04-01T04:54:29;2.20;;;1.50;;
13014;SDS011;6573;57.696;11.950;2023-04-01T04:56:58;3.73;;;1.60;;
13014;SDS011;6573;57.696;11.950;2023-04-01T04:59:26;1.83;;;1.20;;
13014;SDS011;6573;57.696;11.950;2023-04-01T05:01:54;4.53;;;1.33;;
13014;SDS011;6573;57.696;11.950;2023-04-01T05:04:23;3.47;;;1.70;;
13014;SDS011;6573;57.696;11.950;2023-04-01T05:06:52;2.70;;;2.10;;
13014;SDS011;6573;57.696;11.950;2023-04-01T05:09:20;2.17;;;1.90;;
13014;SDS011;6573;57.696;11.950;2023-04-01T05:11:50;3.60;;;2.00;;
13014;SDS011;6573;57.696;11.950;2023-04-01T05:14:18;3.23;;;1.80;;
13014;SDS011;6573;57.696;11.950;2023-04-01T05:16:46;3.90;;;1.80;;
13014;SDS011;6573;57.696;11.950;2023-04-01T05:19:15;4.53;;;2.57;;
13014;SDS011;6573;57.696;11.950;2023-04-01T05:21:43;4.13;;;2.80;;
13014;SDS011;6573;57.696;11.950;2023-04-01T05:24:12;3.50;;;2.53;;
13014;SDS011;6573;57.696;11.950;2023-04-01T05:26:40;5.90;;;3.83;;
13014;SDS011;6573;57.696;11.950;2023-04-01T05:29:10;4.63;;;3.67;;
13014;SDS011;6573;57.696;11.950;2023-04-01T05:31:38;4.60;;;2.77;;
13014;SDS011;6573;57.696;11.950;2023-04-01T05:34:06;7.47;;;3.53;;
13014;SDS011;6573;57.696;11.950;2023-04-01T05:36:35;4.30;;;3.30;;
13014;SDS011;6573;57.696;11.950;2023-04-01T05:39:03;3.40;;;2.27;;
13014;SDS011;6573;57.696;11.950;2023-04-01T05:41:31;3.50;;;2.40;;
13014;SDS011;6573;57.696;11.950;2023-04-01T05:44:02;2.30;;;1.70;;
13014;SDS011;6573;57.696;11.950;2023-04-01T05:46:33;2.63;;;1.80;;
13014;SDS011;6573;57.696;11.950;2023-04-01T05:49:01;5.40;;;2.57;;
13014;SDS011;6573;57.696;11.950;2023-04-01T05:51:29;4.00;;;2.30;;
13014;SDS011;6573;57.696;11.950;2023-04-01T05:53:58;2.73;;;2.27;;
13014;SDS011;6573;57.696;11.950;2023-04-01T05:56:26;3.63;;;1.90;;
13014;SDS011;6573;57.696;11.950;2023-04-01T05:58:54;3.77;;;1.40;;
13014;SDS011;6573;57.696;11.950;2023-04-01T06:01:23;1.77;;;1.67;;
13014;SDS011;6573;57.696;11.950;2023-04-01T06:03:55;1.83;;;1.63;;
13014;SDS011;6573;57.696;11.950;2023-04-01T06:06:24;10.50;;;2.57;;
13014;SDS011;6573;57.696;11.950;2023-04-01T06:08:56;2.20;;;1.50;;
13014;SDS011;6573;57.696;11.950;2023-04-01T06:11:28;4.17;;;2.63;;
13014;SDS011;6573;57.696;11.950;2023-04-01T06:14:08;4.43;;;2.30;;
13014;SDS011;6573;57.696;11.950;2023-04-01T06:16:46;4.87;;;2.40;;
13014;SDS011;6573;57.696;11.950;2023-04-01T06:19:32;4.37;;;2.60;;
13014;SDS011;6573;57.696;11.950;2023-04-01T06:25:16;3.77;;;2.13;;
13014;SDS011;6573;57.696;11.950;2023-04-01T06:27:56;3.93;;;2.20;;
13014;SDS011;6573;57.696;11.950;2023-04-01T06:30:39;4.40;;;2.40;;
13014;SDS011;6573;57.696;11.950;2023-04-01T06:36:25;5.40;;;2.60;;
13014;SDS011;6573;57.696;11.950;2023-04-01T06:39:19;3.60;;;2.20;;
13014;SDS011;6573;57.696;11.950;2023-04-01T06:45:01;3.77;;;1.50;;
13014;SDS011;6573;57.696;11.950;2023-04-01T06:47:39;2.93;;;1.60;;
13014;SDS011;6573;57.696;11.950;2023-04-01T06:50:19;2.97;;;1.60;;
13014;SDS011;6573;57.696;11.950;2023-04-01T06:52:58;2.87;;;1.43;;
13014;SDS011;6573;57.696;11.950;2023-04-01T06:55:35;4.70;;;1.23;;
13014;SDS011;6573;57.696;11.950;2023-04-01T06:58:11;2.10;;;1.20;;
13014;SDS011;6573;57.696;11.950;2023-04-01T07:00:48;3.30;;;1.47;;
13014;SDS011;6573;57.696;11.950;2023-04-01T07:03:20;2.87;;;1.20;;
13014;SDS011;6573;57.696;11.950;2023-04-01T07:05:50;3.63;;;1.53;;
13014;SDS011;6573;57.696;11.950;2023-04-01T07:08:22;7.07;;;1.63;;
13014;SDS011;6573;57.696;11.950;2023-04-01T07:10:53;3.97;;;1.60;;
13014;SDS011;6573;57.696;11.950;2023-04-01T07:13:25;3.73;;;1.50;;
13014;SDS011;6573;57.696;11.950;2023-04-01T07:15:59;3.60;;;1.50;;
13014;SDS011;6573;57.696;11.950;2023-04-01T07:18:37;3.43;;;1.57;;
13014;SDS011;6573;57.696;11.950;2023-04-01T07:21:20;4.13;;;1.40;;
13014;SDS011;6573;57.696;11.950;2023-04-01T07:23:56;3.53;;;1.30;;
13014;SDS011;6573;57.696;11.950;2023-04-01T07:26:30;3.37;;;1.20;;
13014;SDS011;6573;57.696;11.950;2023-04-01T07:28:58;2.37;;;1.40;;
13014;SDS011;6573;57.696;11.950;2023-04-01T07:31:38;2.30;;;1.40;;
13014;SDS011;6573;57.696;11.950;2023-04-01T07:34:19;3.97;;;1.30;;
13014;SDS011;6573;57.696;11.950;2023-04-01T07:36:53;5.43;;;1.40;;
13014;SDS011;6573;57.696;11.950;2023-04-01T07:39:34;1.53;;;1.00;;
13014;SDS011;6573;57.696;11.950;2023-04-01T07:42:10;3.03;;;1.10;;
13014;SDS011;6573;57.696;11.950;2023-04-01T07:44:47;2.37;;;1.30;;
13014;SDS011;6573;57.696;11.950;2023-04-01T07:47:28;2.00;;;0.93;;
13014;SDS011;6573;57.696;11.950;2023-04-01T07:50:11;3.30;;;1.13;;
13014;SDS011;6573;57.696;11.950;2023-04-01T07:52:50;3.90;;;1.20;;
13014;SDS011;6573;57.696;11.950;2023-04-01T07:55:28;4.07;;;1.13;;
13014;SDS011;6573;57.696;11.950;2023-04-01T07:58:03;1.93;;;1.00;;
13014;SDS011;6573;57.696;11.950;2023-04-01T08:00:40;3.37;;;1.20;;
13014;SDS011;6573;57.696;11.950;2023-04-01T08:03:16;2.60;;;1.00;;
13014;SDS011;6573;57.696;11.950;2023-04-01T08:06:03;4.53;;;1.10;;
13014;SDS011;6573;57.696;11.950;2023-04-01T08:08:40;5.43;;;1.20;;
13014;SDS011;6573;57.696;11.950;2023-04-01T08:11:25;2.67;;;0.80;;
13014;SDS011;6573;57.696;11.950;2023-04-01T08:14:04;3.07;;;1.00;;
13014;SDS011;6573;57.696;11.950;2023-04-01T08:16:43;2.80;;;1.10;;
13014;SDS011;6573;57.696;11.950;2023-04-01T08:19:16;2.60;;;1.10;;
13014;SDS011;6573;57.696;11.950;2023-04-01T08:21:57;1.90;;;0.90;;
13014;SDS011;6573;57.696;11.950;2023-04-01T08:24:33;3.83;;;1.03;;
13014;SDS011;6573;57.696;11.950;2023-04-01T08:27:16;1.70;;;0.93;;
13014;SDS011;6573;57.696;11.950;2023-04-01T08:29:50;2.07;;;0.90;;
13014;SDS011;6573;57.696;11.950;2023-04-01T08:32:25;3.23;;;1.07;;
13014;SDS011;6573;57.696;11.950;2023-04-01T08:35:02;2.73;;;1.10;;
13014;SDS011;6573;57.696;11.950;2023-04-01T08:37:38;2.33;;;0.80;;
13014;SDS011;6573;57.696;11.950;2023-04-01T08:43:24;2.00;;;0.90;;
13014;SDS011;6573;57.696;11.950;2023-04-01T08:46:08;6.13;;;0.80;;
13014;SDS011;6573;57.696;11.950;2023-04-01T08:49:00;2.00;;;0.80;;
13014;SDS011;6573;57.696;11.950;2023-04-01T08:51:58;3.10;;;0.80;;
13014;SDS011;6573;57.696;11.950;2023-04-01T08:54:48;5.90;;;1.00;;
13014;SDS011;6573;57.696;11.950;2023-04-01T08:57:33;1.33;;;0.80;;
13014;SDS011;6573;57.696;11.950;2023-04-01T09:00:18;1.70;;;0.80;;
13014;SDS011;6573;57.696;11.950;2023-04-01T09:03:00;2.70;;;0.70;;
13014;SDS011;6573;57.696;11.950;2023-04-01T09:05:59;1.97;;;1.10;;
13014;SDS011;6573;57.696;11.950;2023-04-01T09:08:50;1.90;;;0.90;;
13014;SDS011;6573;57.696;11.950;2023-04-01T09:11:31;1.67;;;0.77;;
13014;SDS011;6573;57.696;11.950;2023-04-01T09:14:25;2.43;;;0.97;;
13014;SDS011;6573;57.696;11.950;2023-04-01T09:17:26;2.40;;;1.10;;
13014;SDS011;6573;57.696;11.950;2023-04-01T09:23:13;2.10;;;0.80;;
13014;SDS011;6573;57.696;11.950;2023-04-01T09:25:58;4.60;;;0.83;;
13014;SDS011;6573;57.696;11.950;2023-04-01T09:28:38;7.40;;;1.07;;
13014;SDS011;6573;57.696;11.950;2023-04-01T09:31:17;1.53;;;1.00;;
13014;SDS011;6573;57.696;11.950;2023-04-01T09:34:05;5.47;;;1.10;;
13014;SDS011;6573;57.696;11.950;2023-04-01T09:36:51;4.03;;;2.27;;
13014;SDS011;6573;57.696;11.950;2023-04-01T09:39:35;3.30;;;1.20;;
13014;SDS011;6573;57.696;11.950;2023-04-01T09:42:15;3.93;;;1.50;;
13014;SDS011;6573;57.696;11.950;2023-04-01T09:44:59;2.47;;;1.43;;
13014;SDS011;6573;57.696;11.950;2023-04-01T09:47:43;1.97;;;0.90;;
13014;SDS011;6573;57.696;11.950;2023-04-01T09:50:29;4.07;;;1.43;;
13014;SDS011;6573;57.696;11.950;2023-04-01T09:53:05;1.70;;;0.90;;
13014;SDS011;6573;57.696;11.950;2023-04-01T09:55:55;3.10;;;0.87;;
13014;SDS011;6573;57.696;11.950;2023-04-01T10:02:17;7.03;;;0.90;;
13014;SDS011;6573;57.696;11.950;2023-04-01T10:05:37;2.43;;;0.90;;
13014;SDS011;6573;57.696;11.950;2023-04-01T10:08:37;1.80;;;1.20;;
13014;SDS011;6573;57.696;11.950;2023-04-01T10:15:00;4.63;;;1.23;;
13014;SDS011;6573;57.696;11.950;2023-04-01T10:20:55;2.03;;;1.30;;
13014;SDS011;6573;57.696;11.950;2023-04-01T10:26:59;2.93;;;1.00;;
13014;SDS011;6573;57.696;11.950;2023-04-01T10:32:57;2.50;;;1.10;;
13014;SDS011;6573;57.696;11.950;2023-04-01T10:45:17;7.77;;;1.30;;
13014;SDS011;6573;57.696;11.950;2023-04-01T10:48:16;4.57;;;1.83;;
13014;SDS011;6573;57.696;11.950;2023-04-01T10:50:58;5.73;;;4.07;;
13014;SDS011;6573;57.696;11.950;2023-04-01T10:53:44;6.07;;;1.73;;
13014;SDS011;6573;57.696;11.950;2023-04-01T10:56:37;2.90;;;1.07;;
13014;SDS011;6573;57.696;11.950;2023-04-01T11:02:31;1.83;;;1.10;;
13014;SDS011;6573;57.696;11.950;2023-04-01T11:12:09;2.37;;;1.40;;
13014;SDS011;6573;57.696;11.950;2023-04-01T11:21:59;3.47;;;1.27;;
13014;SDS011;6573;57.696;11.950;2023-04-01T11:24:49;1.83;;;1.10;;
13014;SDS011;6573;57.696;11.950;2023-04-01T11:30:49;4.70;;;1.40;;
13014;SDS011;6573;57.696;11.950;2023-04-01T11:33:28;5.73;;;1.40;;
13014;SDS011;6573;57.696;11.950;2023-04-01T11:36:07;4.40;;;2.33;;
13014;SDS011;6573;57.696;11.950;2023-04-01T11:39:00;4.10;;;1.30;;
13014;SDS011;6573;57.696;11.950;2023-04-01T11:41:40;5.70;;;1.27;;
13014;SDS011;6573;57.696;11.950;2023-04-01T11:44:16;3.60;;;1.40;;
13014;SDS011;6573;57.696;11.950;2023-04-01T11:46:51;2.33;;;1.20;;
13014;SDS011;6573;57.696;11.950;2023-04-01T11:49:34;4.47;;;1.60;;
13014;SDS011;6573;57.696;11.950;2023-04-01T11:52:18;2.30;;;1.30;;
13014;SDS011;6573;57.696;11.950;2023-04-01T11:55:01;5.37;;;1.73;;
13014;SDS011;6573;57.696;11.950;2023-04-01T11:57:53;5.47;;;1.53;;
13014;SDS011;6573;57.696;11.950;2023-04-01T12:00:48;5.83;;;1.23;;
13014;SDS011;6573;57.696;11.950;2023-04-01T12:03:41;3.23;;;1.60;;
13014;SDS011;6573;57.696;11.950;2023-04-01T12:06:20;4.73;;;1.53;;
13014;SDS011;6573;57.696;11.950;2023-04-01T12:09:00;2.40;;;0.97;;
13014;SDS011;6573;57.696;11.950;2023-04-01T12:11:37;5.67;;;0.90;;
13014;SDS011;6573;57.696;11.950;2023-04-01T12:14:20;2.03;;;0.80;;
13014;SDS011;6573;57.696;11.950;2023-04-01T12:17:01;1.07;;;0.80;;
13014;SDS011;6573;57.696;11.950;2023-04-01T12:19:38;1.90;;;1.00;;
13014;SDS011;6573;57.696;11.950;2023-04-01T12:22:22;2.80;;;1.13;;
13014;SDS011;6573;57.696;11.950;2023-04-01T12:25:02;2.47;;;1.03;;
13014;SDS011;6573;57.696;11.950;2023-04-01T12:27:46;3.40;;;1.40;;
13014;SDS011;6573;57.696;11.950;2023-04-01T12:30:34;5.53;;;1.33;;
13014;SDS011;6573;57.696;11.950;2023-04-01T12:33:26;2.70;;;0.83;;
13014;SDS011;6573;57.696;11.950;2023-04-01T12:36:19;4.30;;;0.90;;
13014;SDS011;6573;57.696;11.950;2023-04-01T12:39:07;0.70;;;0.70;;
13014;SDS011;6573;57.696;11.950;2023-04-01T12:41:48;1.93;;;0.50;;
13014;SDS011;6573;57.696;11.950;2023-04-01T12:44:34;0.60;;;0.60;;
13014;SDS011;6573;57.696;11.950;2023-04-01T12:47:23;4.47;;;0.83;;
13014;SDS011;6573;57.696;11.950;2023-04-01T12:53:01;5.90;;;0.77;;
13014;SDS011;6573;57.696;11.950;2023-04-01T12:55:45;2.40;;;0.60;;
13014;SDS011;6573;57.696;11.950;2023-04-01T13:01:30;2.03;;;0.60;;
13014;SDS011;6573;57.696;11.950;2023-04-01T13:04:41;0.60;;;0.50;;
13014;SDS011;6573;57.696;11.950;2023-04-01T13:07:23;0.77;;;0.63;;
13014;SDS011;6573;57.696;11.950;2023-04-01T13:10:02;1.60;;;0.70;;
13014;SDS011;6573;57.696;11.950;2023-04-01T13:15:40;0.97;;;0.90;;
13014;SDS011;6573;57.696;11.950;2023-04-01T13:18:16;1.70;;;0.80;;
13014;SDS011;6573;57.696;11.950;2023-04-01T13:21:01;1.70;;;0.70;;
13014;SDS011;6573;57.696;11.950;2023-04-01T13:23:40;2.03;;;0.73;;
13014;SDS011;6573;57.696;11.950;2023-04-01T13:26:18;0.80;;;0.60;;
13014;SDS011;6573;57.696;11.950;2023-04-01T13:28:53;1.20;;;0.90;;
13014;SDS011;6573;57.696;11.950;2023-04-01T13:31:45;1.50;;;0.90;;
13014;SDS011;6573;57.696;11.950;2023-04-01T13:34:26;2.00;;;1.00;;
13014;SDS011;6573;57.696;11.950;2023-04-01T13:37:08;15.67;;;1.30;;
13014;SDS011;6573;57.696;11.950;2023-04-01T13:39:48;2.20;;;0.83;;
13014;SDS011;6573;57.696;11.950;2023-04-01T13:42:24;2.07;;;0.93;;
13014;SDS011;6573;57.696;11.950;2023-04-01T13:45:00;1.13;;;0.80;;
13014;SDS011;6573;57.696;11.950;2023-04-01T13:51:00;1.10;;;0.70;;
13014;SDS011;6573;57.696;11.950;2023-04-01T13:53:44;1.67;;;0.70;;
13014;SDS011;6573;57.696;11.950;2023-04-01T13:56:34;1.70;;;0.87;;
13014;SDS011;6573;57.696;11.950;2023-04-01T13:59:13;0.50;;;0.50;;
13014;SDS011;6573;57.696;11.950;2023-04-01T14:02:07;1.57;;;0.80;;
13014;SDS011;6573;57.696;11.950;2023-04-01T14:04:53;0.97;;;0.70;;
13014;SDS011;6573;57.696;11.950;2023-04-01T14:07:40;0.93;;;0.70;;
13014;SDS011;6573;57.696;11.950;2023-04-01T14:10:25;1.33;;;0.63;;
13014;SDS011;6573;57.696;11.950;2023-04-01T14:13:03;3.93;;;1.20;;
13014;SDS011;6573;57.696;11.950;2023-04-01T14:15:42;2.70;;;1.40;;
13014;SDS011;6573;57.696;11.950;2023-04-01T14:18:28;1.20;;;1.10;;
13014;SDS011;6573;57.696;11.950;2023-04-01T14:21:19;0.90;;;0.50;;
13014;SDS011;6573;57.696;11.950;2023-04-01T14:24:01;2.27;;;1.60;;
13014;SDS011;6573;57.696;11.950;2023-04-01T14:29:43;6.03;;;3.67;;
13014;SDS011;6573;57.696;11.950;2023-04-01T14:32:31;1.27;;;0.87;;
13014;SDS011;6573;57.696;11.950;2023-04-01T14:35:13;1.63;;;0.80;;
13014;SDS011;6573;57.696;11.950;2023-04-01T14:40:55;1.30;;;0.80;;
13014;SDS011;6573;57.696;11.950;2023-04-01T14:43:31;1.37;;;0.73;;
13014;SDS011;6573;57.696;11.950;2023-04-01T14:49:34;3.13;;;1.20;;
13014;SDS011;6573;57.696;11.950;2023-04-01T14:52:04;2.47;;;1.27;;
13014;SDS011;6573;57.696;11.950;2023-04-01T14:54:37;2.03;;;0.80;;
13014;SDS011;6573;57.696;11.950;2023-04-01T14:57:13;0.80;;;0.60;;
13014;SDS011;6573;57.696;11.950;2023-04-01T14:59:46;4.10;;;1.00;;
13014;SDS011;6573;57.696;11.950;2023-04-01T15:05:19;2.70;;;1.00;;
13014;SDS011;6573;57.696;11.950;2023-04-01T15:08:10;4.23;;;1.10;;
13014;SDS011;6573;57.696;11.950;2023-04-01T15:13:54;1.33;;;0.50;;
13014;SDS011;6573;57.696;11.950;2023-04-01T15:16:49;1.90;;;1.10;;
13014;SDS011;6573;57.696;11.950;2023-04-01T15:19:37;2.57;;;1.60;;
13014;SDS011;6573;57.696;11.950;2023-04-01T15:22:26;1.47;;;0.97;;
13014;SDS011;6573;57.696;11.950;2023-04-01T15:28:10;1.13;;;0.60;;
13014;SDS011;6573;57.696;11.950;2023-04-01T15:30:53;2.37;;;0.70;;
13014;SDS011;6573;57.696;11.950;2023-04-01T15:33:31;0.83;;;0.60;;
13014;SDS011;6573;57.696;11.950;2023-04-01T15:36:14;0.80;;;0.70;;
13014;SDS011;6573;57.696;11.950;2023-04-01T15:38:53;1.50;;;0.77;;
13014;SDS011;6573;57.696;11.950;2023-04-01T15:41:35;4.83;;;2.20;;
13014;SDS011;6573;57.696;11.950;2023-04-01T15:47:27;3.40;;;0.90;;
13014;SDS011;6573;57.696;11.950;2023-04-01T15:50:12;0.90;;;0.70;;
13014;SDS011;6573;57.696;11.950;2023-04-01T15:53:07;3.03;;;0.73;;
13014;SDS011;6573;57.696;11.950;2023-04-01T15:55:48;1.73;;;0.87;;
13014;SDS011;6573;57.696;11.950;2023-04-01T15:58:30;4.17;;;1.70;;
13014;SDS011;6573;57.696;11.950;2023-04-01T16:01:13;3.93;;;1.20;;
13014;SDS011;6573;57.696;11.950;2023-04-01T16:03:55;2.10;;;1.20;;
13014;SDS011;6573;57.696;11.950;2023-04-01T16:06:38;1.67;;;0.90;;
13014;SDS011;6573;57.696;11.950;2023-04-01T16:09:24;6.33;;;3.77;;
13014;SDS011;6573;57.696;11.950;2023-04-01T16:12:15;4.50;;;1.30;;
13014;SDS011;6573;57.696;11.950;2023-04-01T16:14:54;3.07;;;1.43;;
13014;SDS011;6573;57.696;11.950;2023-04-01T16:17:44;4.33;;;1.30;;
13014;SDS011;6573;57.696;11.950;2023-04-01T16:20:35;5.90;;;1.70;;
13014;SDS011;6573;57.696;11.950;2023-04-01T16:23:18;3.67;;;1.47;;
13014;SDS011;6573;57.696;11.950;2023-04-01T16:25:59;2.60;;;1.50;;
13014;SDS011;6573;57.696;11.950;2023-04-01T16:28:36;4.83;;;0.93;;
13014;SDS011;6573;57.696;11.950;2023-04-01T16:31:13;5.60;;;3.07;;
13014;SDS011;6573;57.696;11.950;2023-04-01T16:33:52;2.63;;;1.43;;
13014;SDS011;6573;57.696;11.950;2023-04-01T16:36:27;2.20;;;1.13;;
13014;SDS011;6573;57.696;11.950;2023-04-01T16:39:17;2.50;;;1.10;;
13014;SDS011;6573;57.696;11.950;2023-04-01T16:41:59;2.37;;;1.30;;
13014;SDS011;6573;57.696;11.950;2023-04-01T16:44:52;5.30;;;1.60;;
13014;SDS011;6573;57.696;11.950;2023-04-01T16:47:27;2.03;;;1.10;;
13014;SDS011;6573;57.696;11.950;2023-04-01T16:50:05;4.50;;;1.30;;
13014;SDS011;6573;57.696;11.950;2023-04-01T16:52:49;5.33;;;1.10;;
13014;SDS011;6573;57.696;11.950;2023-04-01T16:55:34;2.03;;;1.00;;
13014;SDS011;6573;57.696;11.950;2023-04-01T16:58:09;4.40;;;2.03;;
13014;SDS011;6573;57.696;11.950;2023-04-01T17:00:44;1.40;;;0.93;;
13014;SDS011;6573;57.696;11.950;2023-04-01T17:03:20;1.47;;;1.00;;
13014;SDS011;6573;57.696;11.950;2023-04-01T17:05:57;2.77;;;1.10;;
13014;SDS011;6573;57.696;11.950;2023-04-01T17:08:43;2.07;;;0.70;;
13014;SDS011;6573;57.696;11.950;2023-04-01T17:11:24;2.77;;;1.33;;
13014;SDS011;6573;57.696;11.950;2023-04-01T17:13:59;1.77;;;1.07;;
13014;SDS011;6573;57.696;11.950;2023-04-01T17:16:53;1.17;;;0.80;;
13014;SDS011;6573;57.696;11.950;2023-04-01T17:19:56;4.00;;;1.30;;
13014;SDS011;6573;57.696;11.950;2023-04-01T17:22:40;1.20;;;0.90;;
13014;SDS011;6573;57.696;11.950;2023-04-01T17:25:19;3.80;;;2.23;;
13014;SDS011;6573;57.696;11.950;2023-04-01T17:27:57;1.63;;;1.00;;
13014;SDS011;6573;57.696;11.950;2023-04-01T17:30:33;1.50;;;0.90;;
13014;SDS011;6573;57.696;11.950;2023-04-01T17:33:13;3.90;;;1.97;;